»·PEaware :: AAL1097 KBFL-KGCN

AAL1097 :: KBFL-KGCN

FLIGHT INFORMATION

Flight Status: Arrived
Operator:
American Airlines
More flights by this operator :: More flights under this callsign
Pilot: Adam A. (5112)
Aircraft: BOEING 767-300
(B763)
More flights by this aircraft type
Origin: KBFL Meadows
United States
Destination: KGCN Grand Canyon Natl Park
United States
More flights between these airports :: More routes between these airports
Route: +MEADO1 PMD PGS GCN
File this flight plan on PilotEdge
Remarks:
Altitude:
(Current/Filed)
33,000ft
Speed:
(Current/Filed)
470kts
Departed: 10-Apr-16 07:38 PM
Arrived: 10-Apr-16 09:09 PM
Distance/Time
Traveled:
339nm/1:30
Distance/Time
To Go:
Arrived

Flight Plot

Page will automatically refresh every two minutes.

Flight plan parsing failed; only flown route is shown


Map Options




Map Legend


Flown Route
Filed Route
Departure Airport
Arrival Airport
Navaid (VOR, NDB)
Fix

Horizontal Profiles

Position Reports

Time Latitude Longitude Heading Altitude Ground
Speed
10-Apr-16 18:25 35.437530 -119.055324 108 517ft 0kts
10-Apr-16 18:26 35.437530 -119.055324 108 517ft 0kts
10-Apr-16 18:27 35.437530 -119.055324 108 517ft 0kts
10-Apr-16 18:28 35.437530 -119.055324 108 517ft 0kts
10-Apr-16 18:30 35.437530 -119.055324 108 517ft 0kts
10-Apr-16 18:31 35.437530 -119.055324 108 517ft 0kts
10-Apr-16 18:32 35.437530 -119.055324 108 517ft 0kts
10-Apr-16 18:33 35.437530 -119.055324 108 517ft 0kts
10-Apr-16 18:34 35.437530 -119.055324 108 517ft 0kts
10-Apr-16 18:35 35.437530 -119.055324 108 517ft 0kts
10-Apr-16 18:36 35.437530 -119.055324 108 517ft 0kts
10-Apr-16 18:37 35.437530 -119.055324 108 517ft 0kts
10-Apr-16 18:38 35.437530 -119.055324 108 517ft 0kts
10-Apr-16 18:39 35.437530 -119.055324 108 517ft 0kts
10-Apr-16 18:40 35.437530 -119.055324 108 517ft 0kts
10-Apr-16 18:41 35.437530 -119.055324 108 517ft 0kts
10-Apr-16 18:42 35.437530 -119.055324 108 517ft 0kts
10-Apr-16 18:43 35.437530 -119.055324 108 517ft 0kts
10-Apr-16 18:44 35.437530 -119.055324 108 517ft 0kts
10-Apr-16 18:45 35.437530 -119.055324 108 517ft 0kts
10-Apr-16 18:46 35.437530 -119.055324 108 517ft 0kts
10-Apr-16 18:47 35.437530 -119.055324 108 517ft 0kts
10-Apr-16 18:48 35.437530 -119.055324 108 517ft 0kts
10-Apr-16 18:49 35.437530 -119.055324 108 517ft 0kts
10-Apr-16 18:50 35.437530 -119.055324 108 517ft 0kts
10-Apr-16 18:51 35.437530 -119.055324 108 517ft 0kts
10-Apr-16 18:51 35.437530 -119.055324 108 517ft 0kts
10-Apr-16 18:52 35.437530 -119.055324 108 517ft 0kts
10-Apr-16 18:53 35.437530 -119.055324 108 517ft 0kts
10-Apr-16 18:54 35.437530 -119.055324 108 517ft 0kts
10-Apr-16 18:55 35.437530 -119.055324 108 517ft 0kts
10-Apr-16 18:56 35.437530 -119.055324 108 517ft 0kts
10-Apr-16 18:57 35.437530 -119.055324 108 517ft 0kts
10-Apr-16 18:58 35.437530 -119.055324 108 517ft 0kts
10-Apr-16 18:59 35.437530 -119.055324 108 517ft 0kts
10-Apr-16 19:00 35.437530 -119.055324 108 517ft 0kts
10-Apr-16 19:01 35.437530 -119.055324 108 517ft 0kts
10-Apr-16 19:02 35.437530 -119.055324 108 517ft 0kts
10-Apr-16 19:03 35.437530 -119.055324 108 517ft 0kts
10-Apr-16 19:04 35.437530 -119.055324 108 517ft 0kts
10-Apr-16 19:05 35.437530 -119.055324 108 517ft 0kts
10-Apr-16 19:06 35.437530 -119.055324 108 517ft 0kts
10-Apr-16 19:07 35.437530 -119.055324 108 517ft 0kts
10-Apr-16 19:08 35.437530 -119.055324 108 517ft 0kts
10-Apr-16 19:09 35.437530 -119.055324 108 517ft 0kts
10-Apr-16 19:10 35.437530 -119.055324 108 517ft 0kts
10-Apr-16 19:11 35.437530 -119.055324 108 517ft 0kts
10-Apr-16 19:12 35.437888 -119.055776 188 517ft 1kts
10-Apr-16 19:13 35.437989 -119.055719 209 517ft 0kts
10-Apr-16 19:14 35.437989 -119.055719 209 517ft 0kts
10-Apr-16 19:15 35.437784 -119.056156 246 517ft 1kts
10-Apr-16 19:16 35.437776 -119.056178 246 517ft 0kts
10-Apr-16 19:17 35.437776 -119.056178 246 517ft 0kts
10-Apr-16 19:18 35.437776 -119.056178 246 517ft 0kts
10-Apr-16 19:19 35.437776 -119.056178 246 517ft 0kts
10-Apr-16 19:20 35.437476 -119.057197 243 517ft 7kts
10-Apr-16 19:21 35.436329 -119.056970 136 517ft 9kts
10-Apr-16 19:22 35.430946 -119.050439 134 517ft 28kts
10-Apr-16 19:23 35.426051 -119.044595 154 517ft 14kts
10-Apr-16 19:24 35.425590 -119.044560 237 517ft 0kts
10-Apr-16 19:25 35.425525 -119.044843 257 517ft 7kts
10-Apr-16 19:26 35.425664 -119.046285 312 517ft 0kts
10-Apr-16 19:28 35.425664 -119.046285 312 517ft 0kts
10-Apr-16 19:29 35.425850 -119.046529 313 517ft 20kts
10-Apr-16 19:30 35.455161 -119.080867 315 2579ft 202kts
10-Apr-16 19:31 35.500917 -119.135817 315 5725ft 256kts
10-Apr-16 19:32 35.552278 -119.199050 315 9840ft 275kts
10-Apr-16 19:33 35.606180 -119.281933 286 11798ft 371kts
10-Apr-16 19:34 35.574363 -119.398860 232 12982ft 382kts
10-Apr-16 19:35 35.491294 -119.475647 186 14821ft 397kts
10-Apr-16 19:36 35.400998 -119.414108 125 18390ft 415kts
10-Apr-16 19:37 35.331746 -119.297004 123 21677ft 437kts
10-Apr-16 19:38 35.262120 -119.171700 123 24434ft 460kts
10-Apr-16 19:39 35.187811 -119.039490 123 26850ft 483kts
10-Apr-16 19:40 35.110579 -118.902717 123 29410ft 495kts
10-Apr-16 19:41 35.034366 -118.767083 123 32239ft 488kts
10-Apr-16 19:42 34.957428 -118.631721 123 33034ft 487kts
10-Apr-16 19:43 34.880000 -118.496126 123 33027ft 488kts
10-Apr-16 19:44 34.802767 -118.361397 123 32991ft 488kts
10-Apr-16 19:45 34.724743 -118.225802 123 32981ft 488kts
10-Apr-16 19:46 34.659707 -118.082865 102 32978ft 484kts
10-Apr-16 19:47 34.665292 -117.924458 71 32974ft 474kts
10-Apr-16 19:48 34.699745 -117.779525 71 32957ft 475kts
10-Apr-16 19:49 34.736268 -117.625659 71 32980ft 474kts
10-Apr-16 19:49 34.766487 -117.497505 71 32984ft 478kts
10-Apr-16 19:50 34.803042 -117.341569 71 32991ft 481kts
10-Apr-16 19:52 34.845771 -117.158050 71 32952ft 488kts
10-Apr-16 19:52 34.876483 -117.025250 71 32923ft 491kts
10-Apr-16 19:53 34.913044 -116.866724 71 32916ft 491kts
10-Apr-16 19:54 34.949969 -116.707035 71 32916ft 492kts
10-Apr-16 19:55 34.986382 -116.546682 71 32920ft 491kts
10-Apr-16 19:56 35.022415 -116.386802 71 32933ft 488kts
10-Apr-16 19:57 35.056985 -116.232445 72 32934ft 461kts
10-Apr-16 19:58 35.090553 -116.081570 73 32935ft 459kts
10-Apr-16 19:59 35.123674 -115.931691 73 32934ft 459kts
10-Apr-16 20:00 35.157022 -115.782041 73 32962ft 459kts
10-Apr-16 20:01 35.189998 -115.631400 74 32983ft 458kts
10-Apr-16 20:02 35.222611 -115.481019 74 32981ft 458kts
10-Apr-16 20:03 35.254959 -115.330844 74 32985ft 458kts
10-Apr-16 20:04 35.287150 -115.180421 74 32989ft 457kts
10-Apr-16 20:05 35.318977 -115.030717 74 32993ft 457kts
10-Apr-16 20:06 35.350646 -114.880915 74 32998ft 457kts
10-Apr-16 20:07 35.382560 -114.731212 74 32999ft 457kts
10-Apr-16 20:08 35.413995 -114.580578 74 32998ft 457kts
10-Apr-16 20:09 35.445320 -114.429256 74 32998ft 457kts
10-Apr-16 20:10 35.476307 -114.278533 74 32998ft 457kts
10-Apr-16 20:11 35.507198 -114.127238 74 32932ft 453kts
10-Apr-16 20:12 35.537321 -113.978746 74 32515ft 449kts
10-Apr-16 20:13 35.566871 -113.833638 74 32259ft 450kts
10-Apr-16 20:14 35.597017 -113.684055 74 32005ft 456kts
10-Apr-16 20:15 35.625909 -113.539312 72 27673ft 424kts
10-Apr-16 20:16 35.657606 -113.410602 71 23713ft 362kts
10-Apr-16 20:17 35.689712 -113.279442 72 23021ft 424kts
10-Apr-16 20:18 35.722877 -113.142944 72 21604ft 410kts
10-Apr-16 20:19 35.754880 -113.010593 72 20122ft 400kts
10-Apr-16 20:20 35.726113 -112.890120 144 18612ft 395kts
10-Apr-16 20:21 35.622481 -112.857831 170 17594ft 389kts
10-Apr-16 20:22 35.516508 -112.836488 170 17009ft 385kts
10-Apr-16 20:23 35.412343 -112.815513 170 16381ft 383kts
10-Apr-16 20:24 35.318229 -112.770006 125 15567ft 375kts
10-Apr-16 20:25 35.323941 -112.654258 51 15136ft 370kts
10-Apr-16 20:26 35.386119 -112.560770 50 14253ft 305kts
10-Apr-16 20:27 35.433118 -112.490196 50 13533ft 258kts
10-Apr-16 20:28 35.477785 -112.423223 50 13210ft 255kts
10-Apr-16 20:29 35.522399 -112.356436 50 12718ft 254kts
10-Apr-16 20:30 35.528983 -112.275048 100 12254ft 252kts
10-Apr-16 20:31 35.516237 -112.190546 100 12102ft 251kts
10-Apr-16 20:33 35.504132 -112.109996 100 12105ft 251kts
10-Apr-16 20:34 35.491788 -112.025417 100 12106ft 251kts
10-Apr-16 20:35 35.479236 -111.941450 100 12106ft 251kts
10-Apr-16 20:36 35.493784 -111.866594 22 12120ft 251kts
10-Apr-16 20:37 35.543654 -111.906287 290 11742ft 247kts
10-Apr-16 20:38 35.567351 -111.985061 290 10414ft 245kts
10-Apr-16 20:39 35.590625 -112.062799 290 9192ft 241kts
10-Apr-16 20:40 35.613533 -112.139313 290 8996ft 240kts
10-Apr-16 20:41 35.636499 -112.215704 290 8988ft 240kts
10-Apr-16 20:42 35.672164 -112.280607 330 8996ft 240kts
10-Apr-16 20:43 35.730247 -112.321026 330 8972ft 240kts
10-Apr-16 20:44 35.787625 -112.360986 330 8972ft 240kts
10-Apr-16 20:45 35.843013 -112.352674 66 8974ft 229kts
10-Apr-16 20:46 35.843179 -112.276765 100 8953ft 217kts
10-Apr-16 20:47 35.873064 -112.228559 36 9047ft 173kts
10-Apr-16 20:48 35.905903 -112.195933 39 8974ft 150kts
10-Apr-16 20:49 35.933404 -112.226007 265 8990ft 189kts
10-Apr-16 20:50 35.942071 -112.287887 240 8953ft 194kts
10-Apr-16 20:51 35.900132 -112.334768 220 8971ft 206kts
10-Apr-16 20:51 35.864091 -112.373230 221 8865ft 212kts
10-Apr-16 20:53 35.808600 -112.431869 220 8972ft 229kts
10-Apr-16 20:54 35.756498 -112.429051 111 8986ft 229kts
10-Apr-16 20:54 35.766100 -112.367476 70 9022ft 219kts
10-Apr-16 20:55 35.797944 -112.310453 41 8916ft 187kts
10-Apr-16 20:56 35.836374 -112.269283 40 8559ft 176kts
10-Apr-16 20:57 35.871992 -112.231694 40 8159ft 158kts
10-Apr-16 20:58 35.903257 -112.198752 40 7673ft 149kts
10-Apr-16 20:59 35.934166 -112.166108 41 6863ft 142kts
10-Apr-16 21:00 35.952905 -112.144833 62 6615ft 27kts
10-Apr-16 21:01 35.953478 -112.143968 41 6615ft 0kts
10-Apr-16 21:02 35.956143 -112.141120 40 6615ft 22kts
10-Apr-16 21:03 35.960832 -112.136192 39 6615ft 14kts
10-Apr-16 21:04 35.961597 -112.134635 190 6615ft 4kts
10-Apr-16 21:05 35.961034 -112.135131 222 6615ft 0kts

Navigation Log

Ident Type
Flight plan parsing failed, navigation log unavailable